Time;durP1;ratioP1;P1;durP2;ratioP2;P2;SDS_P1;SDS_P2;PMS_P1;PMS_P2;Temp;Humidity;BMP_temperature;BMP_pressure;BME280_temperature;BME280_humidity;BME280_pressure;Samples;Min_cycle;Max_cycle;Signal;HPM_P1;HPM_P2
2021/06/16 00:01:13;;;;;;;3.85;2.88;;;;;;;16.35;54.35;100668.88;10310600;28;20224;-76
2021/06/16 00:06:16;;;;;;;6.78;3.20;;;;;;;16.23;55.28;100670.91;10309738;28;20719;-77
2021/06/16 00:11:19;;;;;;;6.20;2.80;;;;;;;15.97;55.60;100678.13;10311599;28;20252;-77
2021/06/16 00:16:24;;;;;;;4.40;2.90;;;;;;;15.95;55.94;100669.28;10326361;28;20236;-76
2021/06/16 00:21:27;;;;;;;3.90;2.92;;;;;;;15.88;56.18;100671.75;10322828;28;20270;-77
2021/06/16 00:26:30;;;;;;;5.05;2.60;;;;;;;15.83;56.09;100666.78;10314327;28;20247;-77
2021/06/16 00:31:35;;;;;;;6.30;3.03;;;;;;;15.65;56.32;100661.31;10311598;28;20244;-76
2021/06/16 00:36:38;;;;;;;8.35;2.63;;;;;;;15.62;56.59;100664.34;10309190;28;20256;-77
2021/06/16 00:41:42;;;;;;;5.55;3.08;;;;;;;15.50;56.95;100660.13;10309075;28;20252;-76
2021/06/16 00:46:46;;;;;;;4.70;2.63;;;;;;;15.40;57.32;100659.31;10306320;28;20225;-77
2021/06/16 00:51:49;;;;;;;3.30;2.95;;;;;;;15.31;57.71;100654.78;10306126;28;20241;-76
2021/06/16 00:56:52;;;;;;;5.18;2.83;;;;;;;15.25;58.16;100650.81;10305736;28;20254;-76
2021/06/16 01:01:56;;;;;;;9.10;3.58;;;;;;;15.26;58.32;100663.31;10302506;28;20917;-76
2021/06/16 01:07:03;;;;;;;4.93;2.95;;;;;;;15.15;58.40;100658.94;10304648;28;20248;-76
2021/06/16 01:12:20;;;;;;;4.95;2.83;;;;;;;15.03;58.78;100652.88;10303193;28;20752;-76
2021/06/16 01:17:33;;;;;;;6.35;3.75;;;;;;;15.06;59.00;100654.44;10304046;28;20229;-76
2021/06/16 01:22:42;;;;;;;5.72;3.38;;;;;;;15.02;59.10;100647.59;10302828;28;20251;-76
2021/06/16 01:27:46;;;;;;;3.30;2.90;;;;;;;14.88;59.50;100659.72;10301516;28;20251;-76
2021/06/16 01:32:50;;;;;;;6.93;3.97;;;;;;;14.72;59.67;100656.78;10305463;28;20248;-76
2021/06/16 01:37:54;;;;;;;4.72;3.70;;;;;;;14.75;59.81;100653.78;10305131;28;20246;-76
2021/06/16 01:42:59;;;;;;;6.00;3.03;;;;;;;14.68;60.22;100640.00;10325338;28;20229;-77
2021/06/16 01:48:03;;;;;;;5.15;2.92;;;;;;;14.60;60.37;100635.31;10341074;28;20231;-76
2021/06/16 01:53:07;;;;;;;9.07;3.50;;;;;;;14.64;60.30;100635.84;10331146;28;20251;-76
2021/06/16 01:58:12;;;;;;;6.70;3.67;;;;;;;14.70;60.23;100623.59;10343070;28;21189;-75
2021/06/16 02:03:16;;;;;;;4.70;3.00;;;;;;;14.78;60.10;100630.03;10345988;28;20257;-75
2021/06/16 02:08:25;;;;;;;3.47;3.17;;;;;;;14.75;60.27;100624.88;10344007;28;20797;-76
2021/06/16 02:13:36;;;;;;;6.60;3.50;;;;;;;14.66;60.67;100623.06;10345896;28;20239;-77
2021/06/16 02:18:45;;;;;;;7.50;3.65;;;;;;;14.52;60.60;100623.50;10342708;28;20236;-76
2021/06/16 02:23:49;;;;;;;7.45;3.90;;;;;;;14.52;60.60;100620.81;10342103;28;20244;-76
2021/06/16 02:28:54;;;;;;;3.67;3.17;;;;;;;14.41;61.13;100623.66;10330147;28;20739;-76
2021/06/16 02:33:57;;;;;;;9.35;3.70;;;;;;;14.49;60.49;100619.25;10340985;28;20233;-77
2021/06/16 02:39:04;;;;;;;7.18;3.83;;;;;;;14.45;60.50;100619.66;10343113;28;20285;-76
2021/06/16 02:44:09;;;;;;;7.68;3.90;;;;;;;14.40;60.94;100611.13;10333068;28;20239;-76
2021/06/16 02:49:14;;;;;;;6.88;3.92;;;;;;;14.42;60.64;100603.75;10341907;28;20236;-76
2021/06/16 02:54:20;;;;;;;7.70;3.72;;;;;;;14.47;60.49;100604.16;10341886;28;20245;-76
2021/06/16 02:59:26;;;;;;;4.25;3.72;;;;;;;14.53;60.38;100603.59;10314254;28;20239;-76
2021/06/16 03:04:29;;;;;;;6.25;3.53;;;;;;;14.49;60.49;100597.63;10341602;28;20635;-76
2021/06/16 03:09:33;;;;;;;8.75;4.30;;;;;;;14.45;61.22;100604.28;10346161;28;20247;-76
2021/06/16 03:14:38;;;;;;;7.30;3.90;;;;;;;14.31;60.94;100597.44;10346425;28;20824;-76
2021/06/16 03:19:42;;;;;;;5.07;3.30;;;;;;;14.12;61.40;100603.75;10345548;28;20236;-76
2021/06/16 03:24:46;;;;;;;5.22;2.97;;;;;;;13.94;61.80;100608.97;10342307;28;20626;-77
2021/06/16 03:29:52;;;;;;;5.30;3.60;;;;;;;13.83;61.90;100602.88;10348142;28;20234;-76
2021/06/16 03:34:55;;;;;;;6.20;3.63;;;;;;;13.67;62.73;100600.72;10345002;28;20740;-77
2021/06/16 03:39:59;;;;;;;5.10;3.45;;;;;;;13.82;62.88;100607.41;10351794;28;20246;-77
2021/06/16 03:45:07;;;;;;;4.22;3.08;;;;;;;13.82;63.04;100607.41;10343810;28;20259;-76
2021/06/16 03:50:12;;;;;;;9.50;4.57;;;;;;;13.78;63.56;100608.69;10345508;28;20946;-76
2021/06/16 03:55:18;;;;;;;9.05;4.70;;;;;;;14.00;62.98;100602.16;10344214;28;20331;-76
2021/06/16 04:00:23;;;;;;;9.50;4.18;;;;;;;14.22;62.65;100598.31;10345514;28;20236;-76
2021/06/16 04:05:26;;;;;;;9.40;4.95;;;;;;;14.39;62.13;100596.78;10346475;28;20620;-76
2021/06/16 04:10:30;;;;;;;6.57;4.00;;;;;;;14.49;61.87;100589.50;10345966;28;20238;-77
2021/06/16 04:15:34;;;;;;;6.82;4.45;;;;;;;14.58;61.68;100587.78;10343247;28;20244;-77
2021/06/16 04:20:38;;;;;;;7.03;4.35;;;;;;;14.78;61.36;100589.47;10346438;28;20428;-75
2021/06/16 04:25:41;;;;;;;8.05;4.80;;;;;;;14.94;60.40;100575.28;10345738;28;20270;-76
2021/06/16 04:30:45;;;;;;;6.43;4.32;;;;;;;15.02;60.40;100571.84;10347590;28;20617;-76
2021/06/16 04:35:48;;;;;;;7.63;4.22;;;;;;;15.07;60.28;100572.25;10346399;28;20793;-75
2021/06/16 04:40:51;;;;;;;7.85;4.30;;;;;;;15.20;59.98;100574.63;10349480;28;20286;-76
2021/06/16 04:45:55;;;;;;;5.70;3.70;;;;;;;15.34;60.29;100573.28;10349086;28;20232;-76
2021/06/16 04:50:58;;;;;;;6.05;3.60;;;;;;;15.35;60.30;100575.84;10350827;28;20264;-76
2021/06/16 04:56:01;;;;;;;7.35;4.10;;;;;;;15.42;60.58;100559.88;10349208;28;20737;-76
2021/06/16 05:01:06;;;;;;;7.00;3.70;;;;;;;15.62;60.38;100561.44;10351102;28;20241;-76
2021/06/16 05:06:09;;;;;;;9.65;4.05;;;;;;;15.76;58.72;100561.91;10369660;28;20244;-75
2021/06/16 05:11:12;;;;;;;7.30;4.07;;;;;;;16.00;57.70;100556.72;10361877;28;20239;-75
2021/06/16 05:16:16;;;;;;;9.20;4.07;;;;;;;16.12;57.87;100558.19;10347795;28;20267;-76
2021/06/16 05:21:20;;;;;;;5.80;3.72;;;;;;;16.28;57.73;100568.34;10368081;28;20238;-75
2021/06/16 05:26:23;;;;;;;6.40;3.88;;;;;;;16.45;57.77;100560.34;10397895;28;20866;-75
2021/06/16 05:31:27;;;;;;;5.53;3.88;;;;;;;16.58;57.12;100564.34;10397599;28;20265;-76
2021/06/16 05:36:30;;;;;;;5.15;3.40;;;;;;;16.70;56.66;100550.50;10357485;28;20765;-77
2021/06/16 05:41:41;;;;;;;11.20;3.92;;;;;;;16.68;56.81;100545.25;10352097;28;20231;-77
2021/06/16 05:46:45;;;;;;;6.10;3.60;;;;;;;16.86;56.48;100537.03;10357496;28;20239;-76
2021/06/16 05:51:48;;;;;;;6.45;4.35;;;;;;;16.92;56.55;100541.84;10354941;28;20258;-75
2021/06/16 05:56:52;;;;;;;6.22;4.40;;;;;;;16.89;56.30;100533.16;10354631;28;20231;-75
2021/06/16 06:01:56;;;;;;;8.50;4.43;;;;;;;16.98;56.29;100530.31;10357084;28;21832;-75
2021/06/16 06:06:59;;;;;;;6.65;4.18;;;;;;;17.10;55.57;100524.59;10354248;28;20231;-76
2021/06/16 06:12:02;;;;;;;6.47;4.47;;;;;;;17.20;55.77;100528.06;10355594;28;20760;-77
2021/06/16 06:17:07;;;;;;;6.53;3.90;;;;;;;17.51;55.23;100532.91;10358591;28;20719;-75
2021/06/16 06:22:10;;;;;;;12.80;4.45;;;;;;;17.65;54.66;100524.09;10357292;28;20246;-76
2021/06/16 06:27:13;;;;;;;7.60;4.30;;;;;;;17.80;53.98;100521.56;10357448;28;20239;-75
2021/06/16 06:32:17;;;;;;;9.27;4.10;;;;;;;17.95;53.56;100519.88;10358776;28;20232;-76
2021/06/16 06:37:20;;;;;;;5.53;4.38;;;;;;;18.16;53.46;100505.00;10347731;28;21372;-77
2021/06/16 06:42:23;;;;;;;7.00;4.50;;;;;;;18.32;52.76;100502.22;10335393;28;20235;-75
2021/06/16 06:47:28;;;;;;;7.68;4.40;;;;;;;18.53;53.59;100509.84;10346752;28;20242;-74
2021/06/16 06:52:30;;;;;;;10.20;4.55;;;;;;;18.82;51.81;100500.28;10361205;28;20239;-75
2021/06/16 06:57:34;;;;;;;4.75;3.65;;;;;;;18.94;52.08;100501.59;10361374;28;20231;-75
2021/06/16 07:02:39;;;;;;;5.72;4.05;;;;;;;19.32;51.75;100501.75;10366228;28;20241;-76
2021/06/16 07:07:42;;;;;;;7.60;4.10;;;;;;;19.50;51.05;100487.84;10380154;28;20634;-76
2021/06/16 07:12:45;;;;;;;8.80;4.60;;;;;;;19.82;50.52;100487.63;10369527;28;20243;-77
2021/06/16 07:17:50;;;;;;;6.07;3.65;;;;;;;20.07;50.29;100481.97;10368298;28;20794;-75
2021/06/16 07:22:53;;;;;;;6.78;3.50;;;;;;;20.18;50.22;100473.34;10364773;28;20236;-75
2021/06/16 07:27:56;;;;;;;6.13;3.63;;;;;;;20.24;50.18;100474.47;10365380;28;20238;-73
2021/06/16 07:33:01;;;;;;;6.28;3.83;;;;;;;20.59;49.74;100461.19;10362995;28;20240;-76
2021/06/16 07:38:04;;;;;;;8.25;4.00;;;;;;;20.81;48.92;100457.50;10367575;28;20756;-76
2021/06/16 07:43:07;;;;;;;6.75;4.05;;;;;;;21.18;48.97;100461.16;10364105;28;20240;-78
2021/06/16 07:48:12;;;;;;;10.13;4.55;;;;;;;21.68;48.12;100451.19;10387647;28;20730;-78
2021/06/16 07:53:15;;;;;;;8.95;4.43;;;;;;;22.00;47.99;100451.72;10399388;28;20243;-76
2021/06/16 07:58:17;;;;;;;9.02;4.30;;;;;;;22.29;47.74;100450.66;10372753;28;20946;-77
2021/06/16 08:03:22;;;;;;;6.25;4.35;;;;;;;22.50;46.81;100452.50;10362321;28;21807;-77
2021/06/16 08:08:25;;;;;;;6.40;4.60;;;;;;;22.67;46.82;100451.13;10347265;28;20239;-76
2021/06/16 08:13:31;;;;;;;8.90;4.35;;;;;;;23.19;47.23;100444.22;10359472;28;20391;-77
2021/06/16 08:18:35;;;;;;;7.47;5.68;;;;;;;24.32;44.67;100443.47;10374957;28;20228;-76
2021/06/16 08:23:38;;;;;;;6.47;5.05;;;;;;;25.64;42.12;100435.78;10367044;28;20242;-76
2021/06/16 08:28:41;;;;;;;9.80;5.10;;;;;;;26.61;40.58;100432.63;10365758;28;20239;-75
2021/06/16 08:33:45;;;;;;;7.90;5.45;;;;;;;26.77;39.85;100426.50;10343624;28;20255;-76
2021/06/16 08:38:48;;;;;;;7.85;5.03;;;;;;;26.50;41.41;100434.22;10357480;28;20235;-74
2021/06/16 08:43:52;;;;;;;8.57;5.72;;;;;;;25.93;42.03;100427.97;10341135;28;20265;-75
2021/06/16 08:48:56;;;;;;;7.78;5.68;;;;;;;25.72;44.54;100416.28;10351478;28;20224;-75
2021/06/16 08:53:59;;;;;;;9.63;6.20;;;;;;;26.10;43.18;100404.31;10393175;28;20236;-74
2021/06/16 08:59:02;;;;;;;8.43;5.90;;;;;;;25.92;43.30;100410.63;10395269;28;20242;-74
2021/06/16 09:04:07;;;;;;;7.30;5.72;;;;;;;26.22;42.60;100409.88;10397722;28;20734;-74
2021/06/16 09:09:10;;;;;;;12.52;5.75;;;;;;;26.60;42.91;100398.69;10396985;28;21451;-75
2021/06/16 09:14:15;;;;;;;8.88;6.68;;;;;;;26.81;41.27;100399.31;10399003;28;20258;-75
2021/06/16 09:19:23;;;;;;;11.82;7.43;;;;;;;26.51;43.08;100397.34;10384602;28;20231;-74
2021/06/16 09:24:41;;;;;;;8.98;6.80;;;;;;;26.73;42.66;100389.44;10381528;28;20232;-73
2021/06/16 09:29:44;;;;;;;8.57;6.68;;;;;;;27.15;42.36;100386.78;10375421;28;20231;-74
2021/06/16 09:34:54;;;;;;;9.65;7.40;;;;;;;27.27;41.75;100378.56;10358761;28;20252;-74
2021/06/16 09:40:00;;;;;;;9.80;7.05;;;;;;;27.66;41.39;100377.09;10369202;28;20230;-74
2021/06/16 09:45:04;;;;;;;9.82;6.95;;;;;;;28.24;40.13;100369.94;10347588;28;20374;-74
2021/06/16 09:50:09;;;;;;;12.10;7.38;;;;;;;28.33;39.77;100371.28;10355039;28;21419;-74
2021/06/16 09:55:28;;;;;;;8.05;6.93;;;;;;;28.29;40.37;100370.06;10354132;28;20240;-75
2021/06/16 10:00:32;;;;;;;11.77;6.97;;;;;;;28.82;39.93;100377.28;10344772;28;20249;-73
2021/06/16 10:05:59;;;;;;;7.03;6.07;;;;;;;28.72;38.93;100366.03;10347759;28;20329;-74
2021/06/16 10:11:04;;;;;;;8.00;6.55;;;;;;;28.30;39.47;100368.97;10350416;28;21560;-74
2021/06/16 10:16:08;;;;;;;8.07;6.60;;;;;;;28.93;39.35;100359.84;10354461;28;20761;-73
2021/06/16 10:21:14;;;;;;;9.75;6.53;;;;;;;29.52;37.43;100347.63;10359273;28;20232;-75
2021/06/16 10:26:25;;;;;;;7.68;6.82;;;;;;;29.49;37.74;100357.25;10361563;28;20244;-74
2021/06/16 10:31:34;;;;;;;10.27;7.30;;;;;;;29.82;37.42;100348.13;10379155;28;20235;-74
2021/06/16 10:36:39;;;;;;;7.55;6.40;;;;;;;30.02;37.68;100336.53;10400861;28;20247;-75
2021/06/16 10:42:00;;;;;;;10.43;6.38;;;;;;;30.06;37.24;100339.63;10402334;28;20261;-74
2021/06/16 10:47:06;;;;;;;9.48;6.65;;;;;;;29.35;37.72;100337.38;10398231;28;20234;-74
2021/06/16 10:52:12;;;;;;;9.15;6.57;;;;;;;30.01;38.31;100331.25;10391172;28;21374;-75
2021/06/16 10:57:15;;;;;;;8.10;7.15;;;;;;;29.88;38.17;100329.66;10394120;28;20246;-75
2021/06/16 11:02:41;;;;;;;10.77;7.80;;;;;;;30.38;37.59;100325.13;10386086;28;20236;-75
2021/06/16 11:07:45;;;;;;;9.07;6.85;;;;;;;31.03;36.58;100315.06;10390696;28;20814;-74
2021/06/16 11:12:53;;;;;;;7.35;6.65;;;;;;;31.45;36.15;100304.09;10384715;28;20241;-75
2021/06/16 11:17:57;;;;;;;7.28;6.40;;;;;;;31.68;35.56;100304.84;10386161;28;20226;-75
2021/06/16 11:23:03;;;;;;;9.10;7.22;;;;;;;32.23;34.86;100298.81;10385431;28;20240;-76
2021/06/16 11:28:12;;;;;;;7.93;7.10;;;;;;;32.37;34.83;100287.22;10383452;28;20233;-75
2021/06/16 11:33:31;;;;;;;9.57;7.60;;;;;;;32.71;33.14;100281.22;10377950;28;20234;-75
2021/06/16 11:38:37;;;;;;;8.80;6.75;;;;;;;32.32;35.00;100265.78;10388185;28;20238;-74
2021/06/16 11:43:43;;;;;;;8.48;7.60;;;;;;;32.14;33.78;100258.72;10392425;28;20249;-76
2021/06/16 11:48:48;;;;;;;12.45;7.20;;;;;;;32.35;34.34;100268.00;10396887;28;20223;-75
2021/06/16 11:54:01;;;;;;;10.05;7.43;;;;;;;33.03;33.50;100267.91;10380158;28;20278;-75
2021/06/16 11:59:06;;;;;;;7.80;6.75;;;;;;;33.15;33.42;100256.53;10400343;28;20238;-75
2021/06/16 12:04:13;;;;;;;8.23;7.45;;;;;;;33.54;33.73;100254.00;10399645;28;20231;-75
2021/06/16 12:09:17;;;;;;;8.73;7.85;;;;;;;34.07;33.51;100253.59;10376506;28;20238;-75
2021/06/16 12:14:23;;;;;;;17.27;8.00;;;;;;;34.39;32.39;100233.69;10392696;28;20273;-74
2021/06/16 12:19:26;;;;;;;8.35;7.30;;;;;;;34.60;32.17;100234.41;10392227;28;20232;-74
2021/06/16 12:24:32;;;;;;;9.38;8.30;;;;;;;34.36;32.01;100222.25;10387785;28;20716;-75
2021/06/16 12:29:37;;;;;;;9.20;7.57;;;;;;;33.52;33.93;100217.25;10394520;28;20231;-74
2021/06/16 12:34:55;;;;;;;9.13;7.63;;;;;;;34.48;32.99;100205.19;10392227;28;20631;-75
2021/06/16 12:40:02;;;;;;;11.88;7.65;;;;;;;34.60;31.21;100197.31;10392525;28;20233;-74
2021/06/16 12:45:26;;;;;;;9.57;7.78;;;;;;;34.75;31.54;100188.00;10391812;28;20628;-76
2021/06/16 12:50:32;;;;;;;9.83;7.70;;;;;;;34.58;31.59;100188.41;10399037;28;20240;-75
2021/06/16 12:55:43;;;;;;;9.73;8.00;;;;;;;35.04;30.51;100183.31;10372569;28;20641;-75
2021/06/16 13:00:46;;;;;;;11.52;7.72;;;;;;;35.24;30.65;100178.66;10374159;28;20247;-74
2021/06/16 13:05:55;;;;;;;8.57;7.68;;;;;;;34.91;30.52;100174.75;10387307;28;20818;-76
2021/06/16 13:10:59;;;;;;;10.55;7.68;;;;;;;35.35;30.06;100169.06;10379449;28;21509;-76
2021/06/16 13:16:02;;;;;;;8.07;7.10;;;;;;;34.88;30.69;100170.59;10389224;28;20346;-74
2021/06/16 13:21:11;;;;;;;8.55;7.70;;;;;;;34.91;30.76;100160.81;10365301;28;20245;-75
2021/06/16 13:26:15;;;;;;;8.38;7.35;;;;;;;35.01;30.00;100157.94;10310522;28;20581;-75
2021/06/16 13:31:20;;;;;;;8.25;7.40;;;;;;;35.62;30.45;100153.72;10308709;28;20234;-74
2021/06/16 13:36:24;;;;;;;8.10;7.40;;;;;;;36.62;28.99;100154.59;10306721;28;20916;-75
2021/06/16 13:41:30;;;;;;;8.45;7.45;;;;;;;36.11;29.38;100160.91;10303496;28;20235;-73
2021/06/16 13:46:35;;;;;;;8.30;7.53;;;;;;;35.91;28.96;100148.91;10299736;28;20273;-75
2021/06/16 13:51:38;;;;;;;8.00;7.20;;;;;;;35.84;30.06;100141.97;10353231;28;20235;-75
2021/06/16 13:56:46;;;;;;;7.68;6.88;;;;;;;36.42;28.97;100136.16;10343299;28;20764;-74
2021/06/16 14:01:49;;;;;;;7.87;7.07;;;;;;;36.76;29.51;100132.25;10337027;28;20241;-74
2021/06/16 14:06:52;;;;;;;8.82;7.20;;;;;;;36.21;29.80;100129.22;10347949;28;20230;-75
2021/06/16 14:11:56;;;;;;;8.02;7.35;;;;;;;35.84;28.80;100126.03;10348215;28;20622;-75
2021/06/16 14:16:59;;;;;;;7.85;7.05;;;;;;;35.78;29.23;100129.22;10354279;28;20239;-74
2021/06/16 14:22:03;;;;;;;7.50;6.80;;;;;;;35.26;30.99;100124.22;10355321;28;20245;-74
2021/06/16 14:27:08;;;;;;;8.10;7.30;;;;;;;36.94;28.97;100116.56;10324416;28;20239;-74
2021/06/16 14:32:11;;;;;;;8.10;7.30;;;;;;;36.68;28.50;100105.81;10306210;28;20235;-74
2021/06/16 14:37:14;;;;;;;7.32;6.63;;;;;;;36.10;28.60;100104.19;10303673;28;20231;-74
2021/06/16 14:42:18;;;;;;;8.68;7.78;;;;;;;36.72;28.59;100095.66;10306327;28;20235;-74
2021/06/16 14:47:22;;;;;;;8.18;6.60;;;;;;;37.30;27.64;100091.53;10303580;28;20261;-74
2021/06/16 14:52:24;;;;;;;7.22;6.53;;;;;;;37.09;28.38;100101.47;10304852;28;20240;-74
2021/06/16 14:57:29;;;;;;;8.65;6.93;;;;;;;36.13;30.09;100098.00;10332027;28;20231;-74
2021/06/16 15:02:32;;;;;;;9.45;7.35;;;;;;;35.00;31.21;100092.13;10381761;28;20246;-74
2021/06/16 15:07:36;;;;;;;9.95;7.53;;;;;;;35.75;30.33;100088.75;10391870;28;20252;-74
2021/06/16 15:12:40;;;;;;;8.10;7.25;;;;;;;33.51;33.68;100100.59;10393725;28;20246;-74
2021/06/16 15:17:43;;;;;;;10.13;7.22;;;;;;;32.83;34.63;100093.53;10375083;28;20289;-75
2021/06/16 15:22:47;;;;;;;10.85;7.38;;;;;;;33.19;34.28;100074.00;10346186;28;20240;-75
2021/06/16 15:27:51;;;;;;;7.93;7.18;;;;;;;32.77;34.43;100080.72;10347737;28;20553;-74
2021/06/16 15:32:54;;;;;;;8.32;7.38;;;;;;;33.71;33.26;100078.28;10347636;28;20250;-74
2021/06/16 15:38:02;;;;;;;8.13;7.32;;;;;;;33.35;33.87;100071.16;10349878;28;20244;-74
2021/06/16 15:43:07;;;;;;;9.95;7.22;;;;;;;33.94;32.61;100064.75;10347696;28;20239;-74
2021/06/16 15:48:11;;;;;;;8.23;7.43;;;;;;;34.16;32.08;100058.78;10348261;28;20271;-74
2021/06/16 15:53:15;;;;;;;9.77;7.25;;;;;;;34.99;30.94;100049.41;10358205;28;20241;-74
2021/06/16 15:58:19;;;;;;;7.78;7.03;;;;;;;35.52;30.48;100040.19;10359009;28;20224;-74
2021/06/16 16:03:22;;;;;;;7.95;6.68;;;;;;;36.28;29.97;100032.63;10357446;28;20238;-75
2021/06/16 16:08:25;;;;;;;8.90;6.75;;;;;;;34.49;31.81;100036.78;10352492;28;20250;-73
2021/06/16 16:13:29;;;;;;;7.55;6.88;;;;;;;32.34;34.89;100030.16;10331571;28;20244;-75
2021/06/16 16:18:37;;;;;;;7.55;6.85;;;;;;;31.09;37.11;100031.94;10347537;28;20242;-75
2021/06/16 16:23:40;;;;;;;10.27;7.95;;;;;;;30.74;38.21;100029.78;10348920;28;20263;-75
2021/06/16 16:28:44;;;;;;;10.30;7.75;;;;;;;30.72;37.95;100025.63;10346405;28;20231;-75
2021/06/16 16:33:48;;;;;;;9.60;7.67;;;;;;;33.06;34.72;100027.28;10348205;28;20829;-75
2021/06/16 16:38:51;;;;;;;11.27;7.10;;;;;;;32.45;34.57;100012.34;10363414;28;20242;-76
2021/06/16 16:43:55;;;;;;;9.25;7.30;;;;;;;32.37;35.93;100017.66;10361722;28;20235;-75
2021/06/16 16:48:58;;;;;;;10.18;7.10;;;;;;;32.14;35.69;100021.75;10347545;28;20738;-75
2021/06/16 16:54:01;;;;;;;8.32;7.13;;;;;;;31.07;37.42;100014.75;10366324;28;20239;-74
2021/06/16 16:59:06;;;;;;;8.85;7.53;;;;;;;30.35;39.17;100010.66;10345366;28;20611;-76
2021/06/16 17:04:09;;;;;;;8.45;7.53;;;;;;;30.17;39.78;100019.34;10346167;28;20242;-75
2021/06/16 17:09:12;;;;;;;8.00;7.25;;;;;;;30.59;39.83;100010.28;10351464;28;20238;-76
2021/06/16 17:14:16;;;;;;;7.90;7.13;;;;;;;32.67;35.51;100000.94;10346685;28;20237;-76
2021/06/16 17:19:19;;;;;;;8.05;7.05;;;;;;;34.67;32.75;99988.69;10348457;28;20238;-76
2021/06/16 17:24:22;;;;;;;8.20;6.57;;;;;;;35.68;31.58;100001.69;10336620;28;20241;-76
2021/06/16 17:29:27;;;;;;;9.73;7.78;;;;;;;35.70;31.12;99999.44;10365416;28;20292;-75
2021/06/16 17:34:30;;;;;;;7.78;7.05;;;;;;;37.41;29.09;99999.72;10344459;28;20246;-76
2021/06/16 17:39:34;;;;;;;7.80;7.00;;;;;;;39.34;26.68;99997.91;10324864;28;21375;-76
2021/06/16 17:44:39;;;;;;;7.45;6.45;;;;;;;38.10;27.62;100000.41;10343907;28;20246;-76
2021/06/16 17:49:44;;;;;;;7.25;6.53;;;;;;;34.76;32.30;100000.84;10345572;28;20318;-75
2021/06/16 17:54:47;;;;;;;7.07;6.47;;;;;;;32.85;34.90;100002.28;10344799;28;20235;-75
2021/06/16 18:00:51;;;;;;;10.80;7.35;;;;;;;31.46;37.29;99994.97;8848503;32;20937;-75
2021/06/16 18:05:54;;;;;;;7.80;6.70;;;;;;;30.37;38.77;99996.53;8740866;33;20234;-75
2021/06/16 18:10:58;;;;;;;7.43;6.50;;;;;;;29.88;40.50;99997.47;8736491;33;20214;-75
2021/06/16 18:16:07;;;;;;;9.27;7.47;;;;;;;29.42;41.12;100008.00;8569202;33;20170;-74
2021/06/16 18:21:10;;;;;;;9.00;7.18;;;;;;;29.15;41.94;100000.53;8570358;33;20778;-74
2021/06/16 18:26:13;;;;;;;8.02;7.03;;;;;;;28.97;42.39;100011.00;8569465;33;20186;-74
2021/06/16 18:31:41;;;;;;;9.40;7.47;;;;;;;28.92;42.49;100007.06;8887801;32;20511;-73
2021/06/16 18:36:44;;;;;;;10.00;7.60;;;;;;;28.76;42.90;100004.34;8745048;33;20194;-73
2021/06/16 18:41:47;;;;;;;8.38;7.45;;;;;;;28.58;43.63;100011.84;8691182;33;20716;-73
2021/06/16 18:46:51;;;;;;;9.23;7.32;;;;;;;28.45;43.83;100012.97;8683819;33;20681;-74
2021/06/16 18:51:55;;;;;;;8.43;7.63;;;;;;;28.27;44.48;100010.47;8724129;33;20187;-73
2021/06/16 18:56:59;;;;;;;8.38;7.55;;;;;;;27.89;45.31;100006.47;8714595;33;20571;-73
2021/06/16 19:02:07;;;;;;;8.30;7.45;;;;;;;27.54;45.38;100004.72;8717679;33;20191;-73
2021/06/16 19:07:11;;;;;;;9.57;7.85;;;;;;;27.21;46.20;100010.06;8739383;33;20191;-74
2021/06/16 19:12:15;;;;;;;8.98;8.10;;;;;;;26.98;46.83;100006.28;8741200;33;20294;-75
2021/06/16 19:17:24;;;;;;;8.60;7.78;;;;;;;26.85;47.10;100012.03;8728512;33;20212;-74
2021/06/16 19:22:27;;;;;;;9.32;8.43;;;;;;;26.72;47.56;100019.44;8723294;33;20269;-73
2021/06/16 19:27:31;;;;;;;10.18;9.18;;;;;;;26.51;48.41;100017.28;8738748;33;20529;-74
2021/06/16 19:32:36;;;;;;;11.63;9.43;;;;;;;26.39;48.32;100021.97;8762433;33;20489;-75
2021/06/16 19:37:39;;;;;;;12.55;8.82;;;;;;;26.13;48.81;100023.19;8739798;33;20690;-74
2021/06/16 19:42:43;;;;;;;9.90;8.75;;;;;;;26.05;49.19;100018.84;8743818;33;20199;-75
2021/06/16 19:47:48;;;;;;;10.18;8.95;;;;;;;25.92;49.35;100019.91;8720362;33;20218;-75
2021/06/16 19:52:53;;;;;;;10.73;9.40;;;;;;;25.80;49.53;100022.59;8720725;33;20183;-72
2021/06/16 19:57:57;;;;;;;10.23;9.02;;;;;;;25.69;49.88;100026.16;8719956;33;20245;-73
2021/06/16 20:03:04;;;;;;;12.02;9.52;;;;;;;25.56;50.41;100016.16;8718160;33;20191;-74
2021/06/16 20:08:07;;;;;;;10.32;9.32;;;;;;;25.37;50.70;100023.59;8720126;33;20201;-73
2021/06/16 20:13:10;;;;;;;11.13;10.02;;;;;;;25.24;51.31;100032.00;8718785;33;20155;-73
2021/06/16 20:18:15;;;;;;;15.93;9.75;;;;;;;25.05;51.79;100033.06;8659477;33;20185;-74
2021/06/16 20:23:18;;;;;;;11.25;10.15;;;;;;;25.00;51.97;100039.22;8660185;33;20157;-73
2021/06/16 20:28:22;;;;;;;11.57;10.32;;;;;;;24.84;52.83;100026.06;8631945;33;20601;-73
2021/06/16 20:33:27;;;;;;;14.20;10.13;;;;;;;24.72;53.10;100036.97;8658138;33;20736;-74
2021/06/16 20:38:30;;;;;;;11.57;10.30;;;;;;;24.59;53.35;100040.69;8659318;33;20192;-75
2021/06/16 20:43:33;;;;;;;11.32;10.23;;;;;;;24.40;53.92;100033.44;8658388;33;21059;-74
2021/06/16 20:48:38;;;;;;;12.32;10.68;;;;;;;24.25;54.42;100037.34;8654613;33;20180;-74
2021/06/16 20:53:41;;;;;;;11.52;10.32;;;;;;;24.15;54.81;100047.13;8638027;33;20239;-74
2021/06/16 20:58:44;;;;;;;13.93;11.05;;;;;;;24.17;54.88;100056.00;8657078;33;20513;-73
2021/06/16 21:03:49;;;;;;;13.23;10.50;;;;;;;23.99;55.41;100048.50;8658096;33;20182;-73
2021/06/16 21:08:52;;;;;;;13.48;11.32;;;;;;;23.84;55.86;100051.56;8658523;33;20188;-74
2021/06/16 21:13:55;;;;;;;14.75;12.35;;;;;;;23.79;55.84;100052.19;8659390;33;20239;-75
2021/06/16 21:19:00;;;;;;;14.27;11.55;;;;;;;23.82;56.11;100048.19;8642851;33;20583;-75
2021/06/16 21:24:03;;;;;;;12.45;11.10;;;;;;;23.78;56.32;100058.75;8659254;33;20808;-75
2021/06/16 21:29:07;;;;;;;14.07;11.95;;;;;;;23.67;56.32;100056.69;8659535;33;20140;-75
2021/06/16 21:34:11;;;;;;;12.85;11.48;;;;;;;23.60;56.60;100056.69;8659166;33;21465;-75
2021/06/16 21:39:14;;;;;;;14.65;12.32;;;;;;;23.46;57.06;100059.72;8662284;33;20160;-74
2021/06/16 21:44:18;;;;;;;14.07;12.75;;;;;;;23.42;56.90;100057.41;8661393;33;20780;-74
2021/06/16 21:49:22;;;;;;;15.15;12.48;;;;;;;23.43;56.91;100069.22;8661552;33;20176;-73
2021/06/16 21:54:27;;;;;;;13.88;12.48;;;;;;;23.39;56.97;100070.69;8661457;33;20251;-75
2021/06/16 21:59:30;;;;;;;13.73;12.23;;;;;;;23.25;57.41;100072.63;8660262;33;20187;-75
2021/06/16 22:04:35;;;;;;;15.35;12.00;;;;;;;23.16;57.48;100083.00;8660762;33;20194;-74
2021/06/16 22:09:38;;;;;;;17.63;12.32;;;;;;;23.20;57.63;100083.41;8660090;33;20394;-75
2021/06/16 22:14:41;;;;;;;15.07;12.55;;;;;;;23.19;57.57;100079.81;8658062;33;20243;-74
2021/06/16 22:19:46;;;;;;;14.90;12.27;;;;;;;23.16;57.30;100084.91;8659267;33;20223;-74
2021/06/16 22:24:49;;;;;;;13.77;12.00;;;;;;;23.09;57.61;100084.91;8657905;33;20190;-75
2021/06/16 22:29:52;;;;;;;13.65;12.25;;;;;;;23.01;57.55;100079.66;8658976;33;20766;-74
2021/06/16 22:34:57;;;;;;;15.77;12.45;;;;;;;22.84;58.35;100081.97;8658477;33;20169;-75
2021/06/16 22:40:00;;;;;;;18.27;13.23;;;;;;;22.86;58.01;100082.59;8659120;33;20324;-74
2021/06/16 22:45:09;;;;;;;15.30;11.88;;;;;;;22.75;58.01;100083.25;8658135;33;20613;-75
2021/06/16 22:50:19;;;;;;;14.80;12.20;;;;;;;22.67;58.40;100075.25;8672238;33;20267;-75
2021/06/16 22:55:24;;;;;;;15.88;12.63;;;;;;;22.56;58.73;100076.72;8660674;33;20144;-74
2021/06/16 23:00:30;;;;;;;14.93;12.25;;;;;;;22.59;58.51;100078.19;8659522;33;20199;-74
2021/06/16 23:05:37;;;;;;;13.80;12.23;;;;;;;22.46;58.63;100077.16;8657480;33;20231;-74
2021/06/16 23:10:41;;;;;;;15.63;11.98;;;;;;;22.46;58.81;100071.69;8658230;33;20509;-75
2021/06/16 23:15:46;;;;;;;15.60;13.10;;;;;;;22.44;58.42;100078.41;8659705;33;20498;-75
2021/06/16 23:20:54;;;;;;;14.02;12.35;;;;;;;22.35;58.89;100074.97;8662859;33;20200;-75